createdAt,value
2018-12-24T00:02:44.951Z,1.4
2018-12-24T00:17:07.227Z,1.7
2018-12-24T00:32:30.416Z,1.7
2018-12-24T00:47:37.744Z,1.6
2018-12-24T01:02:46.500Z,1.5
2018-12-24T01:16:59.247Z,1.4
2018-12-24T01:32:37.448Z,1.6
2018-12-24T01:47:47.805Z,1.4
2018-12-24T02:02:01.580Z,1.4
2018-12-24T02:17:07.174Z,1.3
2018-12-24T02:32:38.698Z,1.4
2018-12-24T02:47:05.270Z,1.1
2018-12-24T03:02:23.036Z,1.3
2018-12-24T03:17:34.612Z,1.3
2018-12-24T03:32:06.119Z,1.2
2018-12-24T03:47:27.832Z,1
2018-12-24T04:02:50.237Z,1.1
2018-12-24T04:17:57.862Z,1.1
2018-12-24T04:32:10.709Z,1.1
2018-12-24T04:47:22.054Z,0.9
2018-12-24T05:02:09.202Z,1.1
2018-12-24T05:17:10.516Z,1.1
2018-12-24T05:32:19.682Z,1
2018-12-24T05:47:53.530Z,1
2018-12-24T06:03:12.292Z,0.9
2018-12-24T06:17:58.965Z,0.9
2018-12-24T06:32:59.012Z,0.9
2018-12-24T06:48:12.499Z,1.1
2018-12-24T07:02:15.110Z,0.9
2018-12-24T07:18:01.161Z,0.9
2018-12-24T07:32:56.519Z,0.8
2018-12-24T07:47:45.463Z,0.9
2018-12-24T08:02:55.813Z,0.9
2018-12-24T08:18:00.562Z,0.9
2018-12-24T08:33:03.046Z,0.8
2018-12-24T08:48:06.404Z,0.9
2018-12-24T09:03:17.868Z,1
2018-12-24T09:18:13.348Z,0.9
2018-12-24T09:32:19.268Z,0.9
2018-12-24T09:47:19.569Z,0.9
2018-12-24T10:03:00.395Z,0.9
2018-12-24T10:18:09.281Z,1.3
2018-12-24T10:32:28.799Z,2.4
2018-12-24T10:48:16.280Z,1.9
2018-12-24T11:03:01.110Z,2.8
2018-12-24T11:17:39.545Z,2.8
2018-12-24T11:32:22.528Z,2.7
2018-12-24T11:47:55.550Z,2.6
2018-12-24T12:02:39.793Z,2.5
2018-12-24T12:17:24.661Z,2.3
2018-12-24T12:33:07.587Z,2.1
2018-12-24T12:48:00.345Z,2
2018-12-24T13:03:03.500Z,2.1
2018-12-24T13:17:56.901Z,1.6
2018-12-24T13:32:51.697Z,2.4
2018-12-24T13:47:50.442Z,2.2
2018-12-24T14:02:47.395Z,1.8
2018-12-24T14:17:35.726Z,1.8
2018-12-24T14:32:30.938Z,2
2018-12-24T14:48:03.725Z,2
2018-12-24T15:02:24.016Z,2
2018-12-24T15:17:41.222Z,1.8
2018-12-24T15:33:01.574Z,2
2018-12-24T15:48:27.703Z,1.8
2018-12-24T16:02:55.242Z,1.7
2018-12-24T16:18:21.197Z,1.7
2018-12-24T16:32:31.828Z,1.8
2018-12-24T16:47:37.602Z,2
2018-12-24T17:02:55.788Z,2.1
2018-12-24T17:18:20.372Z,4.1
2018-12-24T17:33:01.746Z,10.3
2018-12-24T17:48:28.679Z,10
2018-12-24T18:03:03.111Z,10
2018-12-24T18:17:59.615Z,9.3
2018-12-24T18:32:52.936Z,9.4
2018-12-24T18:47:45.244Z,7.9
2018-12-24T19:03:30.400Z,7.3
2018-12-24T19:18:30.187Z,7.7
2018-12-24T19:33:05.363Z,7
2018-12-24T19:48:42.245Z,6.1
2018-12-24T20:03:26.417Z,5.4
2018-12-24T20:17:58.039Z,4.7
2018-12-24T20:17:58.337Z,4.7
2018-12-24T20:33:33.418Z,4.6
2018-12-24T20:48:11.245Z,4.5
2018-12-24T21:02:53.429Z,5.2
2018-12-24T21:18:01.631Z,4.3
2018-12-24T21:33:44.471Z,4.1
2018-12-24T21:48:47.385Z,3.6
2018-12-24T22:04:08.481Z,6.7
2018-12-24T22:19:02.050Z,61.6
2018-12-24T22:33:29.276Z,43
2018-12-24T22:48:56.197Z,36.9
2018-12-24T23:03:57.712Z,33.9
2018-12-24T23:18:49.545Z,48.3
2018-12-24T23:33:50.313Z,56
2018-12-24T23:49:09.435Z,46.3
